Time;durP1;ratioP1;P1;durP2;ratioP2;P2;SDS_P1;SDS_P2;PMS_P1;PMS_P2;Temp;Humidity;BMP_temperature;BMP_pressure;BME280_temperature;BME280_humidity;BME280_pressure;Samples;Min_cycle;Max_cycle;Signal;HPM_P1;HPM_P2
2024/02/20 00:01:24;;;;;;;;;;;;;;;12.57;66.54;101574.84;4878992;29;19924;-78
2024/02/20 00:04:19;;;;;;;;;;;;;;;12.63;66.15;101568.97;4853494;29;20461;-78
2024/02/20 00:07:11;;;;;;;;;;;;;;;12.61;65.86;101564.91;4869058;29;19915;-79
2024/02/20 00:10:02;;;;;;;;;;;;;;;12.54;66.37;101567.28;4865954;29;19915;-79
2024/02/20 00:12:52;;;;;;;;;;;;;;;12.53;66.41;101566.47;4866046;29;20374;-79
2024/02/20 00:15:42;;;;;;;;;;;;;;;12.56;66.39;101556.84;4879813;29;19915;-79
2024/02/20 00:18:33;;;;;;;;;;;;;;;12.46;66.71;101557.09;4865393;29;19919;-79
2024/02/20 00:21:25;;;;;;;;;;;;;;;12.54;65.98;101561.81;4865707;29;20300;-78
2024/02/20 00:24:17;;;;;;;;;;;;;;;12.42;66.97;101549.53;4880814;29;19920;-79
2024/02/20 00:27:09;;;;;;;;;;;;;;;12.53;66.43;101541.91;4853016;29;19920;-78
2024/02/20 00:29:58;;;;;;;;;;;;;;;12.47;65.75;101554.06;4882098;29;19916;-78
2024/02/20 00:32:50;;;;;;;;;;;;;;;12.30;66.72;101549.22;4879313;29;19916;-78
2024/02/20 00:35:42;;;;;;;;;;;;;;;12.27;66.58;101554.50;4871027;29;19919;-79
2024/02/20 00:38:34;;;;;;;;;;;;;;;12.15;67.44;101560.47;4868094;29;19915;-79
2024/02/20 00:41:26;;;;;;;;;;;;;;;12.17;67.11;101546.53;4878708;29;19920;-78
2024/02/20 00:44:18;;;;;;;;;;;;;;;12.18;66.55;101545.44;4865284;29;19920;-78
2024/02/20 00:47:10;;;;;;;;;;;;;;;12.00;67.38;101547.16;4867504;29;20553;-78
2024/02/20 00:50:00;;;;;;;;;;;;;;;12.26;66.60;101545.50;4865738;29;19920;-78
2024/02/20 00:52:52;;;;;;;;;;;;;;;12.23;67.08;101546.13;4879132;29;19919;-80
2024/02/20 00:55:44;;;;;;;;;;;;;;;12.22;65.97;101546.44;4865196;29;20385;-80
2024/02/20 00:58:33;;;;;;;;;;;;;;;12.17;67.15;101538.38;4883228;29;20322;-78
2024/02/20 01:01:25;;;;;;;;;;;;;;;12.17;67.07;101543.81;4864807;29;20385;-78
2024/02/20 01:04:17;;;;;;;;;;;;;;;12.17;66.68;101539.16;4860635;29;19915;-80
2024/02/20 01:07:10;;;;;;;;;;;;;;;12.10;66.81;101537.94;4864597;29;19920;-80
2024/02/20 01:10:02;;;;;;;;;;;;;;;11.95;67.52;101539.91;4867236;29;19919;-80
2024/02/20 01:12:54;;;;;;;;;;;;;;;12.11;67.33;101539.56;4864084;29;19919;-80
2024/02/20 01:15:46;;;;;;;;;;;;;;;12.14;67.02;101541.72;4868212;29;19920;-80
2024/02/20 01:18:38;;;;;;;;;;;;;;;12.17;67.06;101533.72;4877932;29;19919;-80
2024/02/20 01:21:30;;;;;;;;;;;;;;;12.22;66.72;101530.06;4864731;29;19923;-80
2024/02/20 01:24:22;;;;;;;;;;;;;;;12.23;66.43;101531.69;4890806;29;19920;-81
2024/02/20 01:27:14;;;;;;;;;;;;;;;12.22;66.80;101530.06;4878493;29;19920;-80
2024/02/20 01:30:06;;;;;;;;;;;;;;;12.29;66.22;101530.47;4894599;29;19915;-79
2024/02/20 01:33:00;;;;;;;;;;;;;;;12.25;66.46;101537.63;4890541;29;19924;-80
2024/02/20 01:35:52;;;;;;;;;;;;;;;12.18;66.76;101546.25;4878283;29;19919;-80
2024/02/20 01:38:41;;;;;;;;;;;;;;;12.12;66.46;101535.75;4877900;29;19920;-80
2024/02/20 01:41:33;;;;;;;;;;;;;;;12.09;66.38;101530.91;4877363;29;19919;-80
2024/02/20 01:44:31;;;;;;;;;;;;;;;12.02;67.14;101525.88;4878105;29;19916;-81
2024/02/20 01:47:20;;;;;;;;;;;;;;;11.98;67.10;101531.13;4876717;29;20381;-80
2024/02/20 01:50:12;;;;;;;;;;;;;;;12.00;67.09;101528.06;4865322;29;19920;-80
2024/02/20 01:53:02;;;;;;;;;;;;;;;11.96;67.12;101516.97;4877801;29;19915;-79
2024/02/20 01:55:55;;;;;;;;;;;;;;;11.97;66.90;101515.06;4866942;29;19920;-79
2024/02/20 01:58:47;;;;;;;;;;;;;;;11.90;66.37;101518.19;4877336;29;19920;-79
2024/02/20 02:01:38;;;;;;;;;;;;;;;11.98;66.66;101514.78;4889320;29;19920;-80
2024/02/20 02:04:31;;;;;;;;;;;;;;;11.99;66.81;101510.09;4877589;29;19915;-79
2024/02/20 02:07:22;;;;;;;;;;;;;;;12.03;66.45;101513.03;4889543;29;19915;-79
2024/02/20 02:10:14;;;;;;;;;;;;;;;11.97;66.77;101506.88;4866916;29;19916;-80
2024/02/20 02:13:06;;;;;;;;;;;;;;;11.97;66.76;101512.34;4863939;29;19916;-79
2024/02/20 02:15:58;;;;;;;;;;;;;;;11.97;67.10;101513.16;4877520;29;19916;-79
2024/02/20 02:18:50;;;;;;;;;;;;;;;11.93;67.55;101509.44;4891856;29;19915;-79
2024/02/20 02:21:42;;;;;;;;;;;;;;;11.90;67.02;101512.75;4877458;29;19927;-79
2024/02/20 02:24:34;;;;;;;;;;;;;;;11.93;67.37;101509.44;4877068;29;19923;-81
2024/02/20 02:27:25;;;;;;;;;;;;;;;11.96;67.17;101510.72;4876895;29;19919;-80
2024/02/20 02:30:20;;;;;;;;;;;;;;;12.02;67.20;101508.69;4863009;29;19916;-80
2024/02/20 02:33:12;;;;;;;;;;;;;;;11.96;67.47;101516.97;4892544;29;19923;-79
2024/02/20 02:36:04;;;;;;;;;;;;;;;11.98;67.20;101513.97;4877313;29;20333;-80
2024/02/20 02:38:56;;;;;;;;;;;;;;;11.94;67.47;101505.56;4888791;29;19920;-79
2024/02/20 02:41:48;;;;;;;;;;;;;;;11.98;67.51;101503.88;4889124;29;19919;-79
2024/02/20 02:44:37;;;;;;;;;;;;;;;12.03;67.47;101504.88;4888906;29;19916;-79
2024/02/20 02:47:29;;;;;;;;;;;;;;;11.94;67.85;101502.84;4893178;29;19916;-79
2024/02/20 02:50:21;;;;;;;;;;;;;;;12.00;67.65;101509.00;4877136;29;19920;-79
2024/02/20 02:53:10;;;;;;;;;;;;;;;11.92;67.66;101507.81;4881630;29;20292;-80
2024/02/20 02:56:02;;;;;;;;;;;;;;;11.85;68.38;101493.78;4892519;29;19924;-79
2024/02/20 02:58:54;;;;;;;;;;;;;;;11.83;68.05;101504.19;4876818;29;19915;-79
2024/02/20 03:01:49;;;;;;;;;;;;;;;11.86;68.09;101511.75;4879826;29;19923;-80
2024/02/20 03:04:42;;;;;;;;;;;;;;;11.84;68.05;101510.41;4888831;29;19923;-79
2024/02/20 03:07:34;;;;;;;;;;;;;;;11.67;68.62;101505.56;4863121;29;19916;-80
2024/02/20 03:10:26;;;;;;;;;;;;;;;11.71;68.49;101509.31;4879415;29;20403;-79
2024/02/20 03:13:17;;;;;;;;;;;;;;;11.61;68.76;101516.88;4891050;29;20293;-79
2024/02/20 03:16:09;;;;;;;;;;;;;;;11.70;68.75;101517.75;4881332;29;19916;-79
2024/02/20 03:19:01;;;;;;;;;;;;;;;11.77;67.90;101524.47;4876784;29;19916;-79
2024/02/20 03:21:53;;;;;;;;;;;;;;;11.85;67.98;101526.47;4876563;29;19924;-79
2024/02/20 03:24:45;;;;;;;;;;;;;;;11.86;67.47;101527.28;4852516;29;19915;-79
2024/02/20 03:27:34;;;;;;;;;;;;;;;11.78;67.97;101531.53;4876367;29;19920;-80
2024/02/20 03:30:26;;;;;;;;;;;;;;;11.86;68.08;101530.00;4862979;29;19916;-79
2024/02/20 03:33:18;;;;;;;;;;;;;;;11.75;68.56;101529.41;4863258;29;19915;-79
2024/02/20 03:36:10;;;;;;;;;;;;;;;11.77;68.62;101537.28;4865960;29;19915;-80
2024/02/20 03:39:02;;;;;;;;;;;;;;;11.83;68.50;101536.88;4866378;29;19924;-80
2024/02/20 03:41:54;;;;;;;;;;;;;;;11.84;68.04;101538.47;4869630;29;19949;-80
2024/02/20 03:44:49;;;;;;;;;;;;;;;11.81;68.55;101538.28;4880707;29;20369;-80
2024/02/20 03:47:40;;;;;;;;;;;;;;;11.72;68.68;101535.44;4870660;29;20294;-80
2024/02/20 03:50:32;;;;;;;;;;;;;;;11.81;68.89;101546.47;4881564;29;19920;-79
2024/02/20 03:53:24;;;;;;;;;;;;;;;11.83;68.54;101541.53;4880049;29;19919;-80
2024/02/20 03:56:16;;;;;;;;;;;;;;;11.93;68.30;101550.31;4869930;29;19915;-80
2024/02/20 03:59:08;;;;;;;;;;;;;;;12.12;67.74;101541.19;4879730;29;20298;-80
2024/02/20 04:02:00;;;;;;;;;;;;;;;11.89;68.16;101543.81;4886822;29;19923;-80
2024/02/20 04:04:52;;;;;;;;;;;;;;;12.00;67.82;101544.44;4887501;29;20388;-79
2024/02/20 04:07:44;;;;;;;;;;;;;;;12.04;67.73;101548.16;4872414;29;19919;-80
2024/02/20 04:10:33;;;;;;;;;;;;;;;12.07;68.18;101552.22;4887115;29;19916;-79
2024/02/20 04:13:25;;;;;;;;;;;;;;;12.03;69.06;101545.75;4898781;29;19919;-79
2024/02/20 04:16:17;;;;;;;;;;;;;;;12.07;68.57;101550.28;4899153;29;20381;-80
2024/02/20 04:19:09;;;;;;;;;;;;;;;11.98;69.62;101557.56;4901346;29;19919;-80
2024/02/20 04:22:00;;;;;;;;;;;;;;;11.98;69.15;101555.66;4887441;29;19924;-80
2024/02/20 04:24:52;;;;;;;;;;;;;;;12.10;68.37;101548.84;4897202;29;19919;-80
2024/02/20 04:27:44;;;;;;;;;;;;;;;12.13;68.14;101560.00;4887083;29;19919;-79
2024/02/20 04:30:39;;;;;;;;;;;;;;;12.11;68.15;101564.13;4898237;29;19916;-79
2024/02/20 04:33:31;;;;;;;;;;;;;;;11.96;68.55;101560.59;4888864;29;19916;-80
2024/02/20 04:36:23;;;;;;;;;;;;;;;12.03;69.05;101559.38;4896074;29;19919;-80
2024/02/20 04:39:15;;;;;;;;;;;;;;;11.95;69.78;101556.25;4883070;29;19915;-79
2024/02/20 04:42:04;;;;;;;;;;;;;;;11.70;70.68;101555.91;4876995;29;19920;-79
2024/02/20 04:44:56;;;;;;;;;;;;;;;11.67;71.23;101557.34;4872842;29;19915;-80
2024/02/20 04:47:48;;;;;;;;;;;;;;;12.02;69.95;101557.75;4896453;29;19916;-79
2024/02/20 04:50:40;;;;;;;;;;;;;;;12.03;69.46;101559.38;4883778;29;19919;-79
2024/02/20 04:53:32;;;;;;;;;;;;;;;12.03;69.70;101554.75;4883964;29;19915;-79
2024/02/20 04:56:23;;;;;;;;;;;;;;;11.99;69.88;101545.53;4875449;29;19915;-80
2024/02/20 04:59:15;;;;;;;;;;;;;;;12.04;70.04;101550.09;4886052;29;19916;-80
2024/02/20 05:02:07;;;;;;;;;;;;;;;11.99;70.17;101542.81;4871230;29;19919;-80
2024/02/20 05:04:59;;;;;;;;;;;;;;;11.98;69.69;101544.75;4886627;29;19919;-79
2024/02/20 05:07:51;;;;;;;;;;;;;;;12.12;69.78;101554.81;4872212;29;19919;-79
2024/02/20 05:10:43;;;;;;;;;;;;;;;12.19;69.55;101552.50;4897312;29;19915;-80
2024/02/20 05:13:34;;;;;;;;;;;;;;;12.11;68.90;101556.75;4874658;29;19920;-79
2024/02/20 05:16:29;;;;;;;;;;;;;;;11.96;69.42;101554.34;4892071;29;20377;-80
2024/02/20 05:19:21;;;;;;;;;;;;;;;11.96;69.51;101551.59;4887524;29;19919;-80
2024/02/20 05:22:13;;;;;;;;;;;;;;;11.89;69.47;101552.00;4866340;29;19919;-79
2024/02/20 05:25:05;;;;;;;;;;;;;;;11.92;69.74;101548.69;4875782;29;19919;-79
2024/02/20 05:27:57;;;;;;;;;;;;;;;11.96;69.39;101548.88;4899558;29;20402;-80
2024/02/20 05:30:49;;;;;;;;;;;;;;;11.96;69.06;101549.69;4896397;29;19915;-80
2024/02/20 05:33:41;;;;;;;;;;;;;;;11.97;68.70;101551.31;4887940;29;19919;-79
2024/02/20 05:36:33;;;;;;;;;;;;;;;11.92;68.62;101548.69;4880374;29;19919;-80
2024/02/20 05:39:25;;;;;;;;;;;;;;;11.90;68.81;101550.91;4871248;29;20318;-80
2024/02/20 05:42:17;;;;;;;;;;;;;;;11.87;69.32;101551.53;4874477;29;19923;-79
2024/02/20 05:45:08;;;;;;;;;;;;;;;11.84;69.15;101549.38;4871725;29;19915;-79
2024/02/20 05:48:00;;;;;;;;;;;;;;;11.72;70.01;101554.50;4878540;29;19915;-78
2024/02/20 05:50:52;;;;;;;;;;;;;;;11.69;69.37;101563.28;4882266;29;19923;-79
2024/02/20 05:53:44;;;;;;;;;;;;;;;11.62;69.83;101571.06;4895016;29;19916;-79
2024/02/20 05:56:36;;;;;;;;;;;;;;;11.46;69.99;101578.69;4887961;29;19919;-79
2024/02/20 05:59:28;;;;;;;;;;;;;;;11.64;69.38;101579.72;4895901;29;19915;-79
2024/02/20 06:02:20;;;;;;;;;;;;;;;11.65;69.89;101594.16;4886081;29;20297;-79
2024/02/20 06:05:12;;;;;;;;;;;;;;;11.54;70.09;101588.88;4862568;29;19915;-78
2024/02/20 06:08:04;;;;;;;;;;;;;;;11.63;69.94;101599.09;4878621;29;19916;-78
2024/02/20 06:10:53;;;;;;;;;;;;;;;11.74;69.61;101584.19;4850986;29;19923;-78
2024/02/20 06:13:46;;;;;;;;;;;;;;;11.60;69.80;101595.06;4877513;29;19916;-78
2024/02/20 06:16:38;;;;;;;;;;;;;;;11.59;69.94;101599.69;4852926;29;19919;-78
2024/02/20 06:19:30;;;;;;;;;;;;;;;11.47;70.52;101602.09;4863420;29;20309;-79
2024/02/20 06:22:19;;;;;;;;;;;;;;;11.55;70.87;101595.16;4877676;29;19923;-80
2024/02/20 06:25:11;;;;;;;;;;;;;;;10.31;74.38;101606.56;4866860;29;19915;-80
2024/02/20 06:28:03;;;;;;;;;;;;;;;9.60;77.86;101595.69;4855961;29;19923;-81
2024/02/20 06:30:55;;;;;;;;;;;;;;;9.31;80.80;101595.69;4870332;29;19916;-82
2024/02/20 06:33:47;;;;;;;;;;;;;;;9.51;80.85;101592.78;4877522;29;19919;-81
2024/02/20 06:36:39;;;;;;;;;;;;;;;9.03;83.52;101597.28;4865394;29;19920;-81
2024/02/20 06:39:28;;;;;;;;;;;;;;;9.30;84.26;101603.00;4867098;29;19915;-79
2024/02/20 06:42:20;;;;;;;;;;;;;;;9.37;82.56;101616.25;4863273;29;19919;-79
2024/02/20 06:45:12;;;;;;;;;;;;;;;9.13;81.92;101618.91;4869685;29;19916;-79
2024/02/20 06:48:06;;;;;;;;;;;;;;;9.04;80.76;101619.78;4866399;29;20309;-79
2024/02/20 06:50:59;;;;;;;;;;;;;;;9.38;80.99;101613.28;4875410;29;20002;-79
2024/02/20 06:53:54;;;;;;;;;;;;;;;9.45;80.01;101624.59;4864756;29;19915;-79
2024/02/20 06:56:46;;;;;;;;;;;;;;;9.64;79.14;101629.31;4860320;29;20313;-78
2024/02/20 06:59:37;;;;;;;;;;;;;;;9.54;78.75;101634.84;4863484;29;19920;-78
2024/02/20 07:02:32;;;;;;;;;;;;;;;8.65;81.96;101633.31;4859999;29;19924;-78
2024/02/20 07:05:25;;;;;;;;;;;;;;;8.90;84.01;101636.69;4877226;29;19919;-78
2024/02/20 07:08:16;;;;;;;;;;;;;;;9.53;81.37;101630.50;4862914;29;19916;-79
2024/02/20 07:11:10;;;;;;;;;;;;;;;9.77;79.61;101639.50;4865960;29;19920;-78
2024/02/20 07:14:02;;;;;;;;;;;;;;;9.86;78.71;101638.59;4857355;29;20301;-79
2024/02/20 07:16:57;;;;;;;;;;;;;;;10.02;78.08;101639.22;4872598;29;19916;-78
2024/02/20 07:19:49;;;;;;;;;;;;;;;10.40;76.57;101633.94;4866642;29;19920;-79
2024/02/20 07:22:41;;;;;;;;;;;;;;;10.67;74.67;101640.34;4880591;29;19919;-79
2024/02/20 07:25:33;;;;;;;;;;;;;;;11.08;73.06;101651.47;4879725;29;19928;-80
2024/02/20 07:28:25;;;;;;;;;;;;;;;11.72;72.48;101651.78;4865747;29;20397;-78
2024/02/20 07:31:22;;;;;;;;;;;;;;;12.13;70.51;101671.78;4879079;29;19915;-79
2024/02/20 07:34:14;;;;;;;;;;;;;;;12.52;68.63;101678.63;4879859;29;19919;-79
2024/02/20 07:37:05;;;;;;;;;;;;;;;12.69;68.34;101665.19;4882641;29;20080;-78
2024/02/20 07:39:57;;;;;;;;;;;;;;;13.18;66.84;101667.91;4866330;29;20390;-78
2024/02/20 07:42:49;;;;;;;;;;;;;;;13.57;66.26;101666.41;4879512;29;19924;-78
2024/02/20 07:45:41;;;;;;;;;;;;;;;14.09;64.52;101670.22;4878836;29;19916;-79
2024/02/20 07:48:33;;;;;;;;;;;;;;;14.45;63.15;101673.59;4879937;29;19920;-79
2024/02/20 07:51:25;;;;;;;;;;;;;;;14.91;62.27;101678.53;4867187;29;19920;-79
2024/02/20 07:54:14;;;;;;;;;;;;;;;15.13;61.73;101687.75;4870617;29;19915;-78
2024/02/20 07:57:06;;;;;;;;;;;;;;;15.54;59.91;101687.25;4875483;29;19923;-79
2024/02/20 07:59:56;;;;;;;;;;;;;;;15.34;60.79;101678.53;4871686;29;19916;-79
2024/02/20 08:02:47;;;;;;;;;;;;;;;15.25;62.46;101680.47;4881276;29;19923;-80
2024/02/20 08:05:40;;;;;;;;;;;;;;;15.20;62.61;101680.63;4878502;29;19920;-79
2024/02/20 08:08:32;;;;;;;;;;;;;;;14.93;63.91;101697.41;4878549;29;19916;-81
2024/02/20 08:11:24;;;;;;;;;;;;;;;13.13;73.00;101702.72;4883566;29;19915;-80
2024/02/20 08:14:16;;;;;;;;;;;;;;;13.50;71.51;101709.75;4887425;29;19919;-80
2024/02/20 08:17:07;;;;;;;;;;;;;;;13.77;70.11;101703.34;4876222;29;19916;-80
2024/02/20 08:19:59;;;;;;;;;;;;;;;13.94;67.98;101711.66;4884278;29;19916;-80
2024/02/20 08:22:51;;;;;;;;;;;;;;;13.39;71.05;101711.94;4900661;29;19923;-80
2024/02/20 08:25:43;;;;;;;;;;;;;;;13.59;70.44;101719.63;4884377;29;19919;-80
2024/02/20 08:28:38;;;;;;;;;;;;;;;14.07;70.13;101721.69;4883360;29;19919;-79
2024/02/20 08:31:30;;;;;;;;;;;;;;;14.62;67.07;101721.31;4894902;29;19915;-80
2024/02/20 08:34:22;;;;;;;;;;;;;;;14.79;66.14;101707.66;4893724;29;19919;-80
2024/02/20 08:37:14;;;;;;;;;;;;;;;14.90;64.59;101714.44;4877689;29;19945;-80
2024/02/20 08:40:05;;;;;;;;;;;;;;;14.99;63.55;101723.47;4885914;29;19919;-80
2024/02/20 08:42:57;;;;;;;;;;;;;;;15.21;63.23;101726.09;4884169;29;19919;-80
2024/02/20 08:45:47;;;;;;;;;;;;;;;15.15;63.58;101730.09;4887739;29;19919;-80
2024/02/20 08:48:39;;;;;;;;;;;;;;;14.66;65.48;101725.84;4898568;29;19915;-80
2024/02/20 08:51:31;;;;;;;;;;;;;;;15.13;63.71;101726.09;4897500;29;19915;-80
2024/02/20 08:54:22;;;;;;;;;;;;;;;15.27;63.45;101727.56;4886599;29;20119;-81
2024/02/20 08:57:14;;;;;;;;;;;;;;;15.62;61.62;101727.56;4896229;29;19915;-80
2024/02/20 09:00:04;;;;;;;;;;;;;;;16.36;58.80;101722.50;4901601;29;19919;-80
2024/02/20 09:02:56;;;;;;;;;;;;;;;15.89;58.97;101715.44;4881236;29;19923;-80
2024/02/20 09:05:51;;;;;;;;;;;;;;;16.19;58.37;101714.38;4876469;29;19919;-80
2024/02/20 09:08:43;;;;;;;;;;;;;;;16.30;57.14;101723.06;4866682;29;19923;-80
2024/02/20 09:11:34;;;;;;;;;;;;;;;16.31;56.30;101722.69;4872664;29;19916;-80
2024/02/20 09:14:26;;;;;;;;;;;;;;;17.12;55.00;101724.41;4873553;29;19919;-81
2024/02/20 09:17:18;;;;;;;;;;;;;;;17.61;53.83;101731.78;4878495;29;19915;-80
2024/02/20 09:20:10;;;;;;;;;;;;;;;17.19;54.29;101735.66;4861798;29;19915;-81
2024/02/20 09:22:57;;;;;;;;;;;;;;;17.79;52.43;101724.94;4866155;29;19921;-80
2024/02/20 09:25:47;;;;;;;;;;;;;;;18.01;52.07;101728.47;4871041;29;19920;-80
2024/02/20 09:28:36;;;;;;;;;;;;;;;18.13;50.43;101731.25;4875786;29;19915;-81
2024/02/20 09:31:28;;;;;;;;;;;;;;;19.11;48.81;101724.56;4874127;29;19919;-80
2024/02/20 09:34:20;;;;;;;;;;;;;;;19.55;47.81;101731.84;4880440;29;19929;-81
2024/02/20 09:37:12;;;;;;;;;;;;;;;19.52;46.58;101738.06;4878735;29;19919;-79
2024/02/20 09:40:04;;;;;;;;;;;;;;;20.24;44.85;101730.53;4878561;29;19915;-78
2024/02/20 09:42:59;;;;;;;;;;;;;;;20.03;45.27;101729.97;4863388;29;19920;-79
2024/02/20 09:45:51;;;;;;;;;;;;;;;19.90;45.66;101734.78;4868610;29;19915;-79
2024/02/20 09:48:44;;;;;;;;;;;;;;;19.94;45.47;101729.34;4871074;29;19924;-79
2024/02/20 09:51:40;;;;;;;;;;;;;;;20.60;43.00;101732.25;4870075;29;19926;-80
2024/02/20 09:54:33;;;;;;;;;;;;;;;20.72;43.93;101734.91;4852175;29;19916;-80
2024/02/20 09:57:26;;;;;;;;;;;;;;;20.83;43.55;101729.63;4874162;29;20305;-80
2024/02/20 10:00:17;;;;;;;;;;;;;;;20.97;43.72;101729.97;4870186;29;19916;-80
2024/02/20 10:03:07;;;;;;;;;;;;;;;20.16;45.28;101727.97;4873233;29;19920;-82
2024/02/20 10:05:59;;;;;;;;;;;;;;;19.87;45.44;101732.72;4874591;29;19920;-81
2024/02/20 10:08:54;;;;;;;;;;;;;;;23.83;37.53;101736.81;4878047;29;19916;-81
2024/02/20 10:11:46;;;;;;;;;;;;;;;28.46;29.63;101741.50;4878715;29;19919;-81
2024/02/20 10:14:37;;;;;;;;;;;;;;;30.26;26.99;101748.97;4882309;29;19915;-81
2024/02/20 10:17:29;;;;;;;;;;;;;;;30.77;25.74;101749.72;4869432;29;19920;-82
2024/02/20 10:20:21;;;;;;;;;;;;;;;31.63;24.09;101755.25;4860848;29;19916;-83
2024/02/20 10:23:13;;;;;;;;;;;;;;;30.22;26.27;101753.84;4878499;29;19923;-81
2024/02/20 10:26:10;;;;;;;;;;;;;;;30.36;25.59;101750.00;4870359;29;19919;-82
2024/02/20 10:29:03;;;;;;;;;;;;;;;29.76;26.72;101749.66;4865374;29;20095;-82
2024/02/20 10:31:52;;;;;;;;;;;;;;;30.02;26.27;101748.09;4871744;29;19916;-81
2024/02/20 10:34:44;;;;;;;;;;;;;;;28.91;27.33;101742.28;4868522;29;19920;-81
2024/02/20 10:37:36;;;;;;;;;;;;;;;29.50;27.12;101750.44;4866311;29;19916;-81
2024/02/20 10:40:28;;;;;;;;;;;;;;;30.86;25.74;101755.56;4873065;29;19916;-82
2024/02/20 10:43:20;;;;;;;;;;;;;;;30.44;25.81;101757.88;4868810;29;19924;-81
2024/02/20 10:46:12;;;;;;;;;;;;;;;30.45;25.11;101753.03;4875983;29;19916;-82
2024/02/20 10:49:05;;;;;;;;;;;;;;;30.10;26.55;101744.00;4880286;29;20389;-82
2024/02/20 10:51:58;;;;;;;;;;;;;;;33.55;22.31;101749.09;4882393;29;19923;-80
2024/02/20 10:54:52;;;;;;;;;;;;;;;30.76;24.89;101750.94;4880824;29;19919;-82
2024/02/20 10:57:44;;;;;;;;;;;;;;;31.71;23.82;101737.78;4867135;29;19920;-82
2024/02/20 11:00:34;;;;;;;;;;;;;;;32.02;23.94;101732.66;4890693;29;19920;-82
2024/02/20 11:03:26;;;;;;;;;;;;;;;30.97;24.98;101739.28;4888164;29;20385;-81
2024/02/20 11:06:18;;;;;;;;;;;;;;;32.28;23.52;101735.66;4895545;29;19915;-81
2024/02/20 11:09:14;;;;;;;;;;;;;;;33.88;21.38;101725.09;4892638;29;20390;-81
2024/02/20 11:12:17;;;;;;;;;;;;;;;32.14;23.32;101722.75;4890612;29;20317;-81
2024/02/20 11:15:09;;;;;;;;;;;;;;;32.20;23.08;101723.81;4908250;29;19915;-81
2024/02/20 11:18:01;;;;;;;;;;;;;;;31.57;23.91;101712.00;4902398;29;19919;-81
2024/02/20 11:21:05;;;;;;;;;;;;;;;31.17;24.31;101716.84;4901759;29;19927;-81
2024/02/20 11:23:57;;;;;;;;;;;;;;;33.67;21.85;101708.84;4892207;29;19920;-82
2024/02/20 11:27:01;;;;;;;;;;;;;;;32.49;22.33;101699.31;4889873;29;19916;-82
2024/02/20 11:29:52;;;;;;;;;;;;;;;31.98;23.70;101709.44;4892292;29;19915;-82
2024/02/20 11:32:44;;;;;;;;;;;;;;;31.89;23.43;101709.25;4902123;29;19915;-82
2024/02/20 11:35:36;;;;;;;;;;;;;;;33.63;21.43;101705.31;4901710;29;19919;-82
2024/02/20 11:38:31;;;;;;;;;;;;;;;36.54;18.69;101700.19;4901447;29;20297;-82
2024/02/20 11:41:23;;;;;;;;;;;;;;;33.46;20.97;101695.41;4888526;29;19923;-81
2024/02/20 11:44:15;;;;;;;;;;;;;;;33.49;21.17;101692.44;4902037;29;20385;-82
2024/02/20 11:47:04;;;;;;;;;;;;;;;34.05;20.53;101685.47;4891022;29;19915;-82
2024/02/20 11:50:04;;;;;;;;;;;;;;;33.58;20.64;101682.50;4889528;29;19920;-81
2024/02/20 11:53:06;;;;;;;;;;;;;;;35.39;18.75;101691.97;4892505;29;20589;-82
2024/02/20 11:55:59;;;;;;;;;;;;;;;33.90;19.84;101685.94;4889195;29;19915;-81
2024/02/20 11:58:55;;;;;;;;;;;;;;;27.54;27.37;101674.22;4898433;29;19919;-82
2024/02/20 12:01:47;;;;;;;;;;;;;;;25.24;32.67;101671.56;4892458;29;19924;-82
2024/02/20 12:04:37;;;;;;;;;;;;;;;29.40;26.85;101663.69;4867322;29;19915;-82
2024/02/20 12:07:32;;;;;;;;;;;;;;;32.09;22.58;101664.94;4879466;29;20377;-82
2024/02/20 12:10:25;;;;;;;;;;;;;;;33.33;21.44;101669.19;4879653;29;20382;-82
2024/02/20 12:13:23;;;;;;;;;;;;;;;34.50;19.92;101671.81;4887880;29;20309;-82
2024/02/20 12:16:29;;;;;;;;;;;;;;;32.28;21.76;101666.06;4867559;29;19920;-81
2024/02/20 12:19:21;;;;;;;;;;;;;;;35.45;18.86;101667.50;4875649;29;19916;-81
2024/02/20 12:22:17;;;;;;;;;;;;;;;37.89;16.76;101672.03;4880393;29;19923;-82
2024/02/20 12:25:09;;;;;;;;;;;;;;;34.57;18.96;101660.25;4869927;29;19916;-81
2024/02/20 12:28:01;;;;;;;;;;;;;;;35.77;17.16;101651.25;4878645;29;19915;-81
2024/02/20 12:30:53;;;;;;;;;;;;;;;35.13;17.72;101653.75;4880047;29;19920;-82
2024/02/20 12:33:45;;;;;;;;;;;;;;;36.98;16.03;101643.97;4864698;29;19920;-82
2024/02/20 12:36:38;;;;;;;;;;;;;;;36.38;16.96;101642.56;4880766;29;20453;-82
2024/02/20 12:39:29;;;;;;;;;;;;;;;34.70;18.53;101646.09;4874241;29;19916;-81
2024/02/20 12:42:22;;;;;;;;;;;;;;;36.83;16.38;101638.94;4874046;29;19920;-82
2024/02/20 12:45:14;;;;;;;;;;;;;;;36.31;17.13;101631.56;4883174;29;19927;-82
2024/02/20 12:48:06;;;;;;;;;;;;;;;36.29;16.88;101628.41;4868078;29;20305;-81
2024/02/20 12:50:58;;;;;;;;;;;;;;;33.06;19.60;101621.66;4880030;29;19920;-82
2024/02/20 12:53:50;;;;;;;;;;;;;;;32.71;19.84;101623.50;4879880;29;20382;-82
2024/02/20 12:56:42;;;;;;;;;;;;;;;33.44;18.99;101616.84;4880300;29;19916;-82
2024/02/20 12:59:34;;;;;;;;;;;;;;;34.83;18.35;101620.59;4879949;29;19920;-82
2024/02/20 13:02:23;;;;;;;;;;;;;;;34.05;18.93;101617.69;4873963;29;19920;-83
2024/02/20 13:05:15;;;;;;;;;;;;;;;32.03;20.34;101601.16;4879679;29;19916;-82
2024/02/20 13:08:08;;;;;;;;;;;;;;;31.26;21.92;101594.16;4878660;29;19916;-82
2024/02/20 13:11:00;;;;;;;;;;;;;;;34.99;18.54;101600.59;4879541;29;19915;-83
2024/02/20 13:13:52;;;;;;;;;;;;;;;32.48;20.14;101598.34;4877444;29;20385;-82
2024/02/20 13:16:45;;;;;;;;;;;;;;;30.45;22.74;101596.63;4868294;29;19924;-81
2024/02/20 13:19:37;;;;;;;;;;;;;;;30.68;22.23;101592.22;4878515;29;19916;-82
2024/02/20 13:22:30;;;;;;;;;;;;;;;30.14;22.72;101583.97;4868999;29;19920;-81
2024/02/20 13:25:34;;;;;;;;;;;;;;;29.30;23.76;101573.72;4867391;29;19919;-81
2024/02/20 13:28:26;;;;;;;;;;;;;;;31.30;22.00;101572.38;4877450;29;19916;-82
2024/02/20 13:31:18;;;;;;;;;;;;;;;31.16;22.13;101569.91;4878213;29;20374;-82
2024/02/20 13:34:10;;;;;;;;;;;;;;;32.05;21.72;101565.69;4866046;29;19916;-82
2024/02/20 13:37:01;;;;;;;;;;;;;;;30.44;22.92;101561.34;4878257;29;19920;-82
2024/02/20 13:39:51;;;;;;;;;;;;;;;29.54;24.30;101552.13;4878193;29;19916;-82
2024/02/20 13:42:42;;;;;;;;;;;;;;;30.34;23.11;101555.94;4865359;29;19920;-82
2024/02/20 13:45:44;;;;;;;;;;;;;;;31.01;22.66;101554.56;4878504;29;19923;-82
2024/02/20 13:48:36;;;;;;;;;;;;;;;29.04;24.48;101549.28;4868614;29;19915;-82
2024/02/20 13:51:25;;;;;;;;;;;;;;;29.52;24.08;101540.53;4886881;29;19919;-83
2024/02/20 13:54:17;;;;;;;;;;;;;;;28.76;25.57;101538.44;4873125;29;19931;-83
2024/02/20 13:57:10;;;;;;;;;;;;;;;29.97;24.15;101543.78;4876496;29;20571;-83
2024/02/20 14:00:02;;;;;;;;;;;;;;;28.36;25.19;101534.50;4868823;29;19916;-84
2024/02/20 14:03:02;;;;;;;;;;;;;;;24.45;30.88;101530.44;4873207;29;20294;-84
2024/02/20 14:05:54;;;;;;;;;;;;;;;22.57;34.59;101528.72;4853373;29;19920;-82
2024/02/20 14:08:45;;;;;;;;;;;;;;;22.17;35.44;101523.81;4867471;29;19924;-82
2024/02/20 14:11:38;;;;;;;;;;;;;;;21.95;36.24;101527.44;4865534;29;19916;-82
2024/02/20 14:14:30;;;;;;;;;;;;;;;21.77;35.89;101521.59;4869213;29;20309;-82
2024/02/20 14:17:22;;;;;;;;;;;;;;;21.77;36.29;101519.63;4877691;29;19916;-82
2024/02/20 14:20:12;;;;;;;;;;;;;;;21.42;36.89;101515.47;4868432;29;19919;-82
2024/02/20 14:23:04;;;;;;;;;;;;;;;21.45;36.84;101510.00;4869561;29;19927;-82
2024/02/20 14:25:56;;;;;;;;;;;;;;;21.40;37.61;101515.84;4880100;29;19920;-82
2024/02/20 14:28:45;;;;;;;;;;;;;;;21.52;36.59;101514.88;4878224;29;19915;-83
2024/02/20 14:31:37;;;;;;;;;;;;;;;21.31;37.02;101509.75;4877611;29;19916;-82
2024/02/20 14:34:29;;;;;;;;;;;;;;;21.06;37.82;101509.28;4875728;29;19916;-82
2024/02/20 14:37:21;;;;;;;;;;;;;;;21.06;37.81;101514.00;4863836;29;20409;-82
2024/02/20 14:40:10;;;;;;;;;;;;;;;21.01;37.73;101520.66;4859784;29;20302;-83
2024/02/20 14:42:57;;;;;;;;;;;;;;;20.87;38.90;101521.19;4878182;29;19924;-81
2024/02/20 14:45:49;;;;;;;;;;;;;;;20.72;37.95;101515.72;4882447;29;19915;-83